Angler Guide Weather for Rouyn Noranda -
Rouyn Noranda, Québec Current Weather Conditions
Enter your "Place, State", US Zip Code or ICAO:  
Forecast Information Radar Information
Rouyn Noranda, Québec, Canada  Lat: 48.18N, Lon: 78.82W
ICAO Used: CYVO
Current Conditions
Updated:
Sun & Moon Information:
Temp: N/A
Humidity: N/A
Wind Speed: N/A
Barometer: N/A
Dewpoint: N/A
Heat Index: N/A
Wind Chill: N/A
Civil Twilight: 7:19 AM EST
Moonrise: 1:56 AM EST Moon Phase:
Waning Crescent Moon
Waning Crescent Moon
Moonset: 1:53 PM EST
Sunrise: 7:55 AM EST
Sunset: 4:20 PM EST
Civil Twilight: 4:57 PM EST
Forecast for Rouyn Noranda, QC:
(Forecast based on TAF for )
0521 PM EST MON NOV 06 2006
  
AFTERNOONEVENINGOVERNIGHT
MISTMISTMIST
MistMistMist
TAF based forecast:
Dated: 0521 PM EST MON NOV 06 2006
Afternoon...Overcast with mist with winds from the south at 12 mph. Possible periods of fog.
Evening...Overcast with mist with winds from the south at 12 mph. Possible periods of fog.
Overnight...Overcast with mist with winds from the south at 12 mph. Possible periods of fog.
Original Encoded TAF:
Dated: 0521 PM EST MON NOV 06 2006
2006/11/06 22:21
CYVO 062221Z 062208 18010KT 4SM BR OVC004 TEMPO 2208 3/8SM FG VV001=




Powered by Angler Guide.com
Copyright © 2007, all rights reserved.